createdAt,value
2022-08-22T00:02:55.136Z,3.60
2022-08-22T00:03:08.205Z,2.80
2022-08-22T00:06:27.006Z,3.42
2022-08-22T00:09:33.389Z,3.00
2022-08-22T00:13:12.770Z,5.62
2022-08-22T00:16:33.458Z,4.05
2022-08-22T00:19:58.179Z,2.70
2022-08-22T00:23:11.692Z,3.30
2022-08-22T00:26:22.273Z,3.50
2022-08-22T00:29:43.558Z,3.40
2022-08-22T00:33:03.062Z,3.90
2022-08-22T00:36:16.606Z,4.53
2022-08-22T00:39:24.616Z,4.87
2022-08-22T00:42:40.550Z,3.90
2022-08-22T00:45:58.507Z,7.28
2022-08-22T00:49:30.399Z,3.25
2022-08-22T00:52:48.248Z,3.93
2022-08-22T00:55:52.143Z,6.15
2022-08-22T00:59:22.910Z,4.12
2022-08-22T01:02:28.870Z,5.72
2022-08-22T01:05:53.091Z,4.45
2022-08-22T01:09:33.333Z,3.70
2022-08-22T01:12:53.509Z,4.20
2022-08-22T01:16:29.317Z,4.40
2022-08-22T01:19:41.266Z,5.18
2022-08-22T01:22:58.783Z,4.07
2022-08-22T01:26:39.655Z,3.97
2022-08-22T01:30:12.131Z,4.97
2022-08-22T01:33:37.706Z,4.85
2022-08-22T01:36:48.943Z,3.90
2022-08-22T01:40:10.462Z,6.05
2022-08-22T01:43:59.913Z,4.80
2022-08-22T01:47:13.993Z,4.10
2022-08-22T01:50:29.236Z,5.57
2022-08-22T01:53:50.799Z,4.25
2022-08-22T01:57:02.466Z,3.72
2022-08-22T02:00:18.387Z,3.90
2022-08-22T02:03:25.051Z,4.35
2022-08-22T02:07:11.082Z,4.55
2022-08-22T02:10:52.072Z,4.65
2022-08-22T02:14:03.483Z,5.40
2022-08-22T02:17:31.640Z,5.00
2022-08-22T02:20:56.756Z,4.82
2022-08-22T02:24:19.447Z,4.47
2022-08-22T02:27:45.091Z,5.22
2022-08-22T02:30:55.198Z,5.05
2022-08-22T02:34:01.413Z,4.60
2022-08-22T02:37:25.704Z,4.97
2022-08-22T02:40:37.694Z,5.37
2022-08-22T02:43:43.837Z,4.30
2022-08-22T02:47:09.182Z,5.55
2022-08-22T02:50:25.739Z,4.03
2022-08-22T02:53:32.656Z,4.62
2022-08-22T02:56:43.330Z,4.20
2022-08-22T03:00:31.869Z,5.62
2022-08-22T03:03:41.177Z,5.28
2022-08-22T03:07:07.535Z,5.00
2022-08-22T03:10:13.517Z,5.05
2022-08-22T03:13:45.869Z,4.95
2022-08-22T03:17:01.025Z,5.55
2022-08-22T03:20:07.662Z,4.22
2022-08-22T03:23:19.333Z,4.67
2022-08-22T03:26:31.986Z,4.18
2022-08-22T03:29:46.831Z,4.85
2022-08-22T03:33:27.927Z,4.35
2022-08-22T03:36:31.688Z,4.78
2022-08-22T03:40:20.334Z,4.73
2022-08-22T03:43:59.415Z,4.72
2022-08-22T03:47:08.179Z,3.83
2022-08-22T03:50:48.262Z,4.12
2022-08-22T03:54:08.720Z,6.15
2022-08-22T03:57:54.686Z,4.43
2022-08-22T04:01:07.959Z,4.68
2022-08-22T04:04:10.820Z,5.93
2022-08-22T04:07:36.288Z,5.60
2022-08-22T04:10:58.626Z,4.97
2022-08-22T04:14:26.066Z,4.70
2022-08-22T04:17:50.874Z,7.35
2022-08-22T04:21:22.816Z,5.00
2022-08-22T04:24:36.630Z,4.90
2022-08-22T04:27:48.455Z,5.55
2022-08-22T04:31:00.986Z,6.87
2022-08-22T04:34:12.910Z,6.40
2022-08-22T04:37:44.048Z,7.00
2022-08-22T04:41:03.944Z,7.80
2022-08-22T04:44:14.222Z,6.60
2022-08-22T04:47:31.692Z,6.40
2022-08-22T04:51:01.188Z,6.65
2022-08-22T04:54:31.872Z,5.78
2022-08-22T04:58:26.404Z,6.55
2022-08-22T05:01:56.126Z,6.57
2022-08-22T05:05:19.844Z,8.63
2022-08-22T05:08:27.439Z,7.25
2022-08-22T05:11:34.132Z,6.75
2022-08-22T05:15:02.489Z,6.43
2022-08-22T05:18:17.364Z,9.02
2022-08-22T05:21:27.148Z,8.60
2022-08-22T05:24:38.888Z,7.60
2022-08-22T05:28:02.599Z,7.70
2022-08-22T05:31:12.424Z,8.52
2022-08-22T05:34:21.856Z,7.18
2022-08-22T05:37:31.180Z,8.77
2022-08-22T05:40:37.914Z,7.50
2022-08-22T05:43:44.243Z,6.57
2022-08-22T05:47:15.679Z,8.05
2022-08-22T05:50:28.546Z,7.40
2022-08-22T05:53:45.759Z,7.13
2022-08-22T05:56:55.994Z,8.35
2022-08-22T06:00:11.843Z,8.95
2022-08-22T06:03:30.201Z,8.98
2022-08-22T06:06:40.950Z,7.47
2022-08-22T06:10:09.574Z,7.83
2022-08-22T06:13:35.899Z,7.65
2022-08-22T06:16:47.638Z,6.72
2022-08-22T06:19:53.664Z,7.35
2022-08-22T06:23:01.017Z,12.18
2022-08-22T06:26:05.543Z,30.33
2022-08-22T06:29:37.949Z,16.05
2022-08-22T06:33:00.162Z,7.35
2022-08-22T06:36:32.744Z,9.13
2022-08-22T06:39:39.351Z,8.27
2022-08-22T06:42:47.561Z,7.40
2022-08-22T06:45:53.108Z,9.18
2022-08-22T06:48:57.991Z,8.52
2022-08-22T06:52:11.901Z,8.13
2022-08-22T06:55:15.597Z,10.18
2022-08-22T06:58:33.974Z,9.13
2022-08-22T07:01:48.676Z,9.45
2022-08-22T07:04:51.830Z,9.50
2022-08-22T07:07:57.737Z,11.48
2022-08-22T07:11:26.104Z,10.23
2022-08-22T07:14:34.530Z,10.77
2022-08-22T07:17:46.757Z,10.48
2022-08-22T07:20:57.284Z,9.40
2022-08-22T07:24:02.501Z,9.73
2022-08-22T07:27:37.597Z,10.43
2022-08-22T07:30:52.938Z,11.97
2022-08-22T07:34:19.406Z,10.88
2022-08-22T07:37:43.827Z,10.40
2022-08-22T07:41:01.880Z,11.18
2022-08-22T07:44:19.437Z,11.80
2022-08-22T07:47:27.463Z,11.67
2022-08-22T07:51:05.941Z,12.50
2022-08-22T07:54:13.542Z,13.68
2022-08-22T07:57:23.831Z,13.57
2022-08-22T08:00:29.946Z,13.23
2022-08-22T08:03:33.165Z,13.10
2022-08-22T08:06:36.966Z,10.63
2022-08-22T08:09:46.052Z,17.35
2022-08-22T08:13:01.822Z,14.38
2022-08-22T08:16:09.743Z,15.32
2022-08-22T08:19:14.830Z,14.30
2022-08-22T08:22:23.804Z,12.88
2022-08-22T08:25:31.180Z,11.27
2022-08-22T08:28:41.358Z,11.85
2022-08-22T08:31:44.983Z,14.50
2022-08-22T08:34:48.480Z,13.20
2022-08-22T08:37:59.371Z,13.98
2022-08-22T08:41:27.298Z,14.30
2022-08-22T08:45:16.089Z,12.85
2022-08-22T08:48:43.297Z,10.35
2022-08-22T08:52:00.907Z,10.73
2022-08-22T08:55:21.807Z,16.05
2022-08-22T08:58:39.810Z,12.13
2022-08-22T09:02:09.209Z,14.05
2022-08-22T09:05:35.125Z,14.70
2022-08-22T09:08:47.738Z,11.80
2022-08-22T09:12:11.263Z,12.52
2022-08-22T09:15:21.519Z,12.13
2022-08-22T09:18:45.045Z,14.35
2022-08-22T09:22:14.260Z,13.65
2022-08-22T09:25:38.414Z,12.10
2022-08-22T09:28:56.986Z,13.25
2022-08-22T09:32:19.154Z,11.77
2022-08-22T09:35:34.454Z,12.60
2022-08-22T09:38:57.014Z,11.52
2022-08-22T09:42:12.640Z,10.87
2022-08-22T09:45:33.816Z,11.98
2022-08-22T09:49:01.150Z,12.30
2022-08-22T09:52:36.920Z,11.63
2022-08-22T09:55:53.200Z,14.05
2022-08-22T09:59:09.802Z,10.95
2022-08-22T10:02:27.913Z,13.05
2022-08-22T10:06:00.588Z,13.07
2022-08-22T10:09:31.296Z,13.50
2022-08-22T10:12:49.926Z,11.63
2022-08-22T10:16:26.720Z,12.50
2022-08-22T10:19:41.815Z,10.65
2022-08-22T10:23:21.601Z,16.77
2022-08-22T10:26:36.508Z,10.03
2022-08-22T10:30:33.723Z,11.45
2022-08-22T10:33:52.256Z,10.88
2022-08-22T10:37:23.556Z,12.00
2022-08-22T10:40:34.512Z,10.73
2022-08-22T10:44:00.867Z,12.30
2022-08-22T10:47:15.852Z,11.98
2022-08-22T10:50:31.214Z,12.50
2022-08-22T10:53:56.015Z,10.70
2022-08-22T10:57:24.364Z,11.40
2022-08-22T11:00:27.242Z,10.67
2022-08-22T11:04:07.709Z,9.57
2022-08-22T11:07:44.605Z,9.13
2022-08-22T11:10:52.122Z,9.57
2022-08-22T11:14:03.168Z,8.20
2022-08-22T11:17:40.686Z,8.83
2022-08-22T11:21:11.260Z,8.07
2022-08-22T11:24:35.564Z,10.05
2022-08-22T11:28:12.739Z,8.10
2022-08-22T11:31:51.571Z,11.67
2022-08-22T11:35:09.048Z,8.87
2022-08-22T11:38:28.038Z,8.30
2022-08-22T11:42:04.251Z,8.32
2022-08-22T11:45:08.511Z,8.50
2022-08-22T11:48:23.969Z,7.37
2022-08-22T11:51:58.091Z,9.27
2022-08-22T11:55:17.115Z,9.40
2022-08-22T11:58:29.259Z,11.68
2022-08-22T12:02:05.808Z,8.82
2022-08-22T12:05:24.321Z,8.52
2022-08-22T12:08:35.520Z,10.43
2022-08-22T12:12:01.532Z,9.95
2022-08-22T12:15:12.034Z,8.85
2022-08-22T12:18:26.938Z,7.72
2022-08-22T12:22:07.378Z,8.55
2022-08-22T12:25:32.020Z,8.63
2022-08-22T12:29:00.566Z,8.00
2022-08-22T12:32:33.969Z,10.38
2022-08-22T12:35:54.838Z,9.52
2022-08-22T12:39:24.665Z,9.15
2022-08-22T12:42:49.175Z,8.80
2022-08-22T12:46:17.400Z,8.80
2022-08-22T12:49:27.341Z,8.27
2022-08-22T12:52:51.904Z,8.32
2022-08-22T12:56:12.474Z,8.98
2022-08-22T12:59:27.878Z,7.37
2022-08-22T13:02:36.163Z,10.35
2022-08-22T13:05:46.048Z,8.07
2022-08-22T13:08:56.036Z,9.13
2022-08-22T13:12:25.406Z,8.45
2022-08-22T13:15:45.883Z,9.57
2022-08-22T13:19:07.796Z,8.98
2022-08-22T13:22:17.236Z,7.95
2022-08-22T13:25:25.495Z,8.33
2022-08-22T13:28:36.206Z,10.50
2022-08-22T13:31:42.396Z,8.27
2022-08-22T13:34:52.191Z,10.75
2022-08-22T13:38:12.190Z,8.70
2022-08-22T13:41:31.505Z,9.00
2022-08-22T13:44:45.299Z,8.75
2022-08-22T13:47:57.788Z,9.40
2022-08-22T13:51:09.986Z,12.00
2022-08-22T13:54:15.389Z,10.15
2022-08-22T13:57:24.632Z,9.17
2022-08-22T14:01:14.094Z,13.15
2022-08-22T14:04:36.422Z,11.43
2022-08-22T14:08:02.995Z,12.07
2022-08-22T14:11:25.423Z,13.55
2022-08-22T14:14:33.586Z,10.27
2022-08-22T14:17:48.885Z,11.32
2022-08-22T14:20:52.342Z,10.38
2022-08-22T14:24:12.262Z,11.30
2022-08-22T14:27:27.082Z,11.18
2022-08-22T14:30:54.638Z,9.17
2022-08-22T14:34:10.765Z,10.65
2022-08-22T14:37:29.119Z,8.85
2022-08-22T14:40:36.680Z,9.20
2022-08-22T14:43:59.779Z,9.48
2022-08-22T14:47:15.852Z,9.77
2022-08-22T14:50:55.959Z,9.07
2022-08-22T14:54:21.064Z,9.18
2022-08-22T14:57:26.034Z,9.15
2022-08-22T15:00:41.864Z,10.35
2022-08-22T15:04:10.277Z,7.43
2022-08-22T15:07:23.977Z,9.43
2022-08-22T15:10:33.373Z,10.07
2022-08-22T15:13:41.057Z,8.73
2022-08-22T15:16:53.726Z,7.20
2022-08-22T15:20:11.208Z,6.33
2022-08-22T15:23:23.537Z,7.75
2022-08-22T15:26:32.998Z,6.12
2022-08-22T15:29:53.036Z,7.45
2022-08-22T15:33:27.866Z,6.62
2022-08-22T15:36:32.748Z,5.70
2022-08-22T15:39:38.317Z,5.87
2022-08-22T15:42:50.265Z,6.20
2022-08-22T15:46:18.279Z,7.70
2022-08-22T15:49:21.430Z,5.97
2022-08-22T15:52:59.160Z,5.23
2022-08-22T15:56:26.105Z,8.13
2022-08-22T15:59:56.751Z,6.75
2022-08-22T16:03:37.168Z,6.30
2022-08-22T16:06:56.085Z,8.52
2022-08-22T16:10:00.456Z,6.83
2022-08-22T16:13:09.383Z,5.90
2022-08-22T16:16:26.546Z,5.25
2022-08-22T16:19:32.454Z,7.47
2022-08-22T16:22:59.059Z,6.80
2022-08-22T16:26:03.045Z,6.37
2022-08-22T16:29:17.982Z,7.72
2022-08-22T16:32:28.205Z,6.78
2022-08-22T16:36:08.150Z,6.78
2022-08-22T16:39:22.596Z,6.15
2022-08-22T16:42:37.976Z,5.83
2022-08-22T16:45:45.598Z,6.10
2022-08-22T16:48:49.858Z,5.40
2022-08-22T16:52:23.689Z,5.00
2022-08-22T16:55:36.136Z,4.85
2022-08-22T16:59:01.015Z,6.03
2022-08-22T17:02:29.718Z,5.47
2022-08-22T17:05:47.758Z,6.30
2022-08-22T17:09:09.575Z,7.45
2022-08-22T17:12:39.903Z,6.05
2022-08-22T17:16:18.566Z,6.93
2022-08-22T17:19:39.780Z,5.78
2022-08-22T17:22:51.573Z,6.25
2022-08-22T17:26:07.122Z,6.12
2022-08-22T17:29:35.794Z,7.53
2022-08-22T17:33:00.217Z,6.70
2022-08-22T17:36:30.842Z,6.87
2022-08-22T17:40:15.770Z,6.28
2022-08-22T17:43:49.311Z,6.45
2022-08-22T17:46:57.907Z,7.55
2022-08-22T17:50:10.992Z,6.40
2022-08-22T17:53:32.468Z,7.47
2022-08-22T17:57:00.296Z,6.05
2022-08-22T18:00:18.203Z,6.97
2022-08-22T18:03:24.244Z,5.72
2022-08-22T18:06:33.854Z,8.07
2022-08-22T18:09:47.003Z,9.13
2022-08-22T18:13:02.324Z,7.35
2022-08-22T18:16:20.065Z,6.97
2022-08-22T18:19:44.691Z,7.10
2022-08-22T18:22:56.154Z,5.60
2022-08-22T18:26:14.011Z,7.25
2022-08-22T18:29:25.567Z,6.40
2022-08-22T18:32:36.159Z,6.32
2022-08-22T18:35:44.898Z,6.22
2022-08-22T18:39:17.071Z,9.30
2022-08-22T18:42:52.870Z,6.62
2022-08-22T18:46:03.258Z,6.53
2022-08-22T18:49:15.905Z,6.20
2022-08-22T18:52:32.152Z,5.37
2022-08-22T18:55:48.180Z,4.70
2022-08-22T18:59:05.311Z,5.87
2022-08-22T19:02:22.588Z,5.75
2022-08-22T19:06:06.408Z,5.05
2022-08-22T19:09:24.616Z,5.95
2022-08-22T19:12:49.551Z,4.57
2022-08-22T19:16:16.288Z,5.68
2022-08-22T19:19:57.685Z,5.68
2022-08-22T19:23:41.007Z,4.78
2022-08-22T19:26:48.542Z,6.32
2022-08-22T19:29:55.772Z,6.57
2022-08-22T19:33:05.284Z,5.10
2022-08-22T19:36:10.665Z,4.95
2022-08-22T19:39:41.455Z,5.37
2022-08-22T19:42:50.269Z,6.68
2022-08-22T19:45:53.729Z,6.87
2022-08-22T19:48:59.783Z,6.00
2022-08-22T19:52:23.707Z,5.25
2022-08-22T19:55:37.242Z,4.97
2022-08-22T19:59:27.185Z,5.07
2022-08-22T20:02:49.873Z,5.73
2022-08-22T20:06:43.644Z,5.95
2022-08-22T20:10:11.173Z,5.12
2022-08-22T20:13:30.653Z,5.25
2022-08-22T20:17:08.636Z,5.28
2022-08-22T20:20:28.004Z,5.93
2022-08-22T20:23:37.484Z,5.82
2022-08-22T20:26:57.570Z,5.95
2022-08-22T20:30:11.300Z,4.95
2022-08-22T20:33:27.427Z,11.43
2022-08-22T20:36:31.013Z,7.43
2022-08-22T20:40:05.609Z,5.50
2022-08-22T20:43:21.160Z,4.70
2022-08-22T20:46:46.116Z,6.15
2022-08-22T20:49:53.401Z,5.07
2022-08-22T20:53:12.414Z,5.00
2022-08-22T20:56:15.591Z,6.30
2022-08-22T20:59:27.705Z,5.53
2022-08-22T21:03:07.736Z,5.20
2022-08-22T21:06:15.210Z,5.10
2022-08-22T21:09:38.968Z,6.07
2022-08-22T21:12:42.252Z,5.75
2022-08-22T21:15:49.253Z,4.80
2022-08-22T21:18:54.512Z,5.43
2022-08-22T21:22:14.416Z,7.45
2022-08-22T21:25:17.596Z,5.53
2022-08-22T21:28:37.156Z,7.95
2022-08-22T21:32:04.401Z,6.80
2022-08-22T21:35:24.272Z,6.53
2022-08-22T21:38:28.148Z,6.87
2022-08-22T21:41:47.874Z,6.10
2022-08-22T21:45:03.980Z,6.53
2022-08-22T21:48:33.340Z,5.82
2022-08-22T21:51:42.042Z,6.15
2022-08-22T21:54:44.963Z,6.65
2022-08-22T21:58:35.705Z,6.03
2022-08-22T22:01:42.591Z,5.50
2022-08-22T22:04:45.815Z,5.72
2022-08-22T22:07:51.046Z,5.97
2022-08-22T22:10:58.955Z,7.85
2022-08-22T22:14:02.097Z,8.03
2022-08-22T22:17:05.145Z,6.55
2022-08-22T22:20:09.287Z,6.12
2022-08-22T22:23:12.489Z,6.75
2022-08-22T22:26:15.404Z,6.37
2022-08-22T22:29:18.516Z,6.40
2022-08-22T22:32:21.448Z,7.00
2022-08-22T22:35:24.776Z,7.43
2022-08-22T22:38:27.458Z,8.13
2022-08-22T22:41:30.379Z,6.73
2022-08-22T22:44:33.715Z,9.88
2022-08-22T22:47:37.092Z,9.85
2022-08-22T22:50:43.400Z,7.45
2022-08-22T22:53:46.810Z,7.50
2022-08-22T22:56:49.693Z,6.87
2022-08-22T22:59:56.575Z,10.32
2022-08-22T23:03:02.047Z,7.15
2022-08-22T23:06:10.572Z,8.32
2022-08-22T23:09:13.192Z,9.37
2022-08-22T23:12:17.497Z,8.37
2022-08-22T23:15:20.285Z,8.95
2022-08-22T23:18:30.343Z,10.43
2022-08-22T23:21:33.368Z,8.75
2022-08-22T23:24:39.132Z,10.93
2022-08-22T23:27:41.992Z,8.47
2022-08-22T23:30:44.928Z,8.27
2022-08-22T23:33:47.939Z,9.98
2022-08-22T23:36:53.833Z,10.70
2022-08-22T23:39:56.699Z,12.50
2022-08-22T23:42:59.822Z,10.03
2022-08-22T23:46:02.817Z,10.35
2022-08-22T23:49:06.669Z,12.63
2022-08-22T23:52:11.557Z,12.18
2022-08-22T23:55:14.578Z,10.90
2022-08-22T23:58:18.429Z,11.80
